Ruth, Mississippi
Current Conditions -  °F | °C
As of 1:53 PM on Thursday 23 Oct 2014 (Local Time) from KMCB Reporting Station
Haze Haze  
Wind Chill: 71°   Ceiling: Unl
Heat Index: 71°   Visibility: 4mi
Dew Point: 41°   Wind: 7mph
Humidity: 34%   Direction: 20°NNE
Pressure: 30.09"   Gusts: NA
Location:  31.38°N, 90.32°W
Report Text: KMCB 231853Z AUTO 02006KT 4SM HZ CLR 22/05 A3009 RMK AO2 SLP186 T02170050
Loading
Personal Weather Stations






























Interactive Weather Map
Tropical Storm Tracking
New forecast layout! Learn more

10-Day Weather Forecast

Advertisements
Track Severe Weather on mobile